Aviation Digital Data Service (ADDS)

Output produced by METARs form (1602 UTC 21 September 2017)
found at http://www.aviationweather.gov/adds/metars/
 
METAR text: KTAZ 211555Z AUTO 17004KT 10SM CLR 29/22 A3005 RMK AO2 T02880219
Conditions at: KTAZ (TAYLORVILLE , IL, US) observed 1555 UTC 21 September 2017
Temperature: 28.8°C (84°F)
Dewpoint: 21.9°C (71°F) [RH = 66%]
Pressure (altimeter): 30.05 inches Hg (1017.7 mb)
Winds: from the S (170 degrees) at 5 MPH (4 knots; 2.1 m/s)
Visibility: 10 or more miles (16+ km)
Ceiling: at least 12,000 feet AGL
Clouds: sky clear below 12,000 feet AGL
Weather: automated observation with no human augmentation;
there may or may not be significant weather present at this time